sensor_id;sensor_type;location;lat;lon;timestamp;P1;durP1;ratioP1;P2;durP2;ratioP2
59649;SDS011;46162;57.568;25.814;2023-07-13T00:01:59;6.72;;;1.42;;
59649;SDS011;46162;57.568;25.814;2023-07-13T00:04:28;5.93;;;1.52;;
59649;SDS011;46162;57.568;25.814;2023-07-13T00:07:01;5.53;;;1.20;;
59649;SDS011;46162;57.568;25.814;2023-07-13T00:09:29;5.72;;;1.88;;
59649;SDS011;46162;57.568;25.814;2023-07-13T00:11:58;6.28;;;1.40;;
59649;SDS011;46162;57.568;25.814;2023-07-13T00:14:27;7.43;;;1.48;;
59649;SDS011;46162;57.568;25.814;2023-07-13T00:16:57;9.02;;;1.55;;
59649;SDS011;46162;57.568;25.814;2023-07-13T00:19:27;12.20;;;2.10;;
59649;SDS011;46162;57.568;25.814;2023-07-13T00:21:55;5.93;;;1.60;;
59649;SDS011;46162;57.568;25.814;2023-07-13T00:24:25;6.80;;;1.55;;
59649;SDS011;46162;57.568;25.814;2023-07-13T00:26:54;7.90;;;1.80;;
59649;SDS011;46162;57.568;25.814;2023-07-13T00:29:23;5.20;;;1.50;;
59649;SDS011;46162;57.568;25.814;2023-07-13T00:31:53;8.52;;;1.48;;
59649;SDS011;46162;57.568;25.814;2023-07-13T00:34:22;5.63;;;1.63;;
59649;SDS011;46162;57.568;25.814;2023-07-13T00:36:51;6.35;;;1.88;;
59649;SDS011;46162;57.568;25.814;2023-07-13T00:39:20;5.15;;;1.35;;
59649;SDS011;46162;57.568;25.814;2023-07-13T00:41:51;8.27;;;1.50;;
59649;SDS011;46162;57.568;25.814;2023-07-13T00:44:20;7.78;;;1.38;;
59649;SDS011;46162;57.568;25.814;2023-07-13T00:46:50;7.47;;;1.35;;
59649;SDS011;46162;57.568;25.814;2023-07-13T00:49:20;9.20;;;1.33;;
59649;SDS011;46162;57.568;25.814;2023-07-13T00:51:52;11.15;;;1.80;;
59649;SDS011;46162;57.568;25.814;2023-07-13T00:54:24;8.73;;;1.70;;
59649;SDS011;46162;57.568;25.814;2023-07-13T00:56:57;6.15;;;1.30;;
59649;SDS011;46162;57.568;25.814;2023-07-13T00:59:28;7.90;;;1.67;;
59649;SDS011;46162;57.568;25.814;2023-07-13T01:01:58;7.90;;;1.23;;
59649;SDS011;46162;57.568;25.814;2023-07-13T01:04:27;7.68;;;1.85;;
59649;SDS011;46162;57.568;25.814;2023-07-13T01:06:56;7.90;;;1.63;;
59649;SDS011;46162;57.568;25.814;2023-07-13T01:09:27;7.22;;;1.92;;
59649;SDS011;46162;57.568;25.814;2023-07-13T01:11:57;11.63;;;1.88;;
59649;SDS011;46162;57.568;25.814;2023-07-13T01:14:26;8.10;;;1.60;;
59649;SDS011;46162;57.568;25.814;2023-07-13T01:16:54;8.02;;;1.75;;
59649;SDS011;46162;57.568;25.814;2023-07-13T01:19:34;6.60;;;1.63;;
59649;SDS011;46162;57.568;25.814;2023-07-13T01:22:08;5.00;;;0.98;;
59649;SDS011;46162;57.568;25.814;2023-07-13T01:24:40;5.68;;;1.40;;
59649;SDS011;46162;57.568;25.814;2023-07-13T01:27:11;8.73;;;1.75;;
59649;SDS011;46162;57.568;25.814;2023-07-13T01:29:41;9.03;;;1.40;;
59649;SDS011;46162;57.568;25.814;2023-07-13T01:32:14;7.07;;;1.13;;
59649;SDS011;46162;57.568;25.814;2023-07-13T01:34:49;9.85;;;1.83;;
59649;SDS011;46162;57.568;25.814;2023-07-13T01:37:23;10.13;;;1.63;;
59649;SDS011;46162;57.568;25.814;2023-07-13T01:39:52;9.27;;;1.70;;
59649;SDS011;46162;57.568;25.814;2023-07-13T01:42:20;7.07;;;1.60;;
59649;SDS011;46162;57.568;25.814;2023-07-13T01:44:49;5.50;;;1.35;;
59649;SDS011;46162;57.568;25.814;2023-07-13T01:47:18;8.35;;;1.23;;
59649;SDS011;46162;57.568;25.814;2023-07-13T01:49:46;6.40;;;1.60;;
59649;SDS011;46162;57.568;25.814;2023-07-13T01:52:15;11.77;;;1.70;;
59649;SDS011;46162;57.568;25.814;2023-07-13T01:54:45;8.50;;;1.35;;
59649;SDS011;46162;57.568;25.814;2023-07-13T01:57:16;6.90;;;1.73;;
59649;SDS011;46162;57.568;25.814;2023-07-13T01:59:44;8.20;;;1.40;;
59649;SDS011;46162;57.568;25.814;2023-07-13T02:02:13;6.13;;;1.02;;
59649;SDS011;46162;57.568;25.814;2023-07-13T02:04:42;8.38;;;1.48;;
59649;SDS011;46162;57.568;25.814;2023-07-13T02:07:10;8.77;;;1.35;;
59649;SDS011;46162;57.568;25.814;2023-07-13T02:09:39;3.53;;;1.45;;
59649;SDS011;46162;57.568;25.814;2023-07-13T02:12:10;10.32;;;1.70;;
59649;SDS011;46162;57.568;25.814;2023-07-13T02:14:39;7.53;;;1.50;;
59649;SDS011;46162;57.568;25.814;2023-07-13T02:17:09;9.80;;;1.90;;
59649;SDS011;46162;57.568;25.814;2023-07-13T02:19:38;10.17;;;1.53;;
59649;SDS011;46162;57.568;25.814;2023-07-13T02:22:06;9.40;;;1.60;;
59649;SDS011;46162;57.568;25.814;2023-07-13T02:24:35;10.18;;;1.63;;
59649;SDS011;46162;57.568;25.814;2023-07-13T02:27:05;12.15;;;1.92;;
59649;SDS011;46162;57.568;25.814;2023-07-13T02:29:35;7.07;;;1.77;;
59649;SDS011;46162;57.568;25.814;2023-07-13T02:32:04;6.93;;;1.60;;
59649;SDS011;46162;57.568;25.814;2023-07-13T02:34:33;9.32;;;2.13;;
59649;SDS011;46162;57.568;25.814;2023-07-13T02:37:03;10.80;;;1.50;;
59649;SDS011;46162;57.568;25.814;2023-07-13T02:39:33;9.57;;;1.75;;
59649;SDS011;46162;57.568;25.814;2023-07-13T02:42:02;7.22;;;1.80;;
59649;SDS011;46162;57.568;25.814;2023-07-13T02:44:32;10.05;;;2.13;;
59649;SDS011;46162;57.568;25.814;2023-07-13T02:47:02;14.05;;;1.60;;
59649;SDS011;46162;57.568;25.814;2023-07-13T02:49:30;7.00;;;1.40;;
59649;SDS011;46162;57.568;25.814;2023-07-13T02:51:59;10.38;;;1.92;;
59649;SDS011;46162;57.568;25.814;2023-07-13T02:54:27;6.65;;;1.52;;
59649;SDS011;46162;57.568;25.814;2023-07-13T02:56:56;7.15;;;1.42;;
59649;SDS011;46162;57.568;25.814;2023-07-13T02:59:25;11.30;;;1.50;;
59649;SDS011;46162;57.568;25.814;2023-07-13T03:01:53;5.95;;;0.98;;
59649;SDS011;46162;57.568;25.814;2023-07-13T03:04:24;12.40;;;1.42;;
59649;SDS011;46162;57.568;25.814;2023-07-13T03:06:53;5.07;;;0.90;;
59649;SDS011;46162;57.568;25.814;2023-07-13T03:09:29;8.23;;;1.23;;
59649;SDS011;46162;57.568;25.814;2023-07-13T03:12:00;8.52;;;1.35;;
59649;SDS011;46162;57.568;25.814;2023-07-13T03:17:01;7.47;;;1.58;;
59649;SDS011;46162;57.568;25.814;2023-07-13T03:19:34;8.48;;;1.45;;
59649;SDS011;46162;57.568;25.814;2023-07-13T03:22:03;7.57;;;1.52;;
59649;SDS011;46162;57.568;25.814;2023-07-13T03:24:33;6.63;;;1.40;;
59649;SDS011;46162;57.568;25.814;2023-07-13T03:27:06;7.68;;;1.70;;
59649;SDS011;46162;57.568;25.814;2023-07-13T03:29:38;5.43;;;1.10;;
59649;SDS011;46162;57.568;25.814;2023-07-13T03:32:07;6.68;;;1.30;;
59649;SDS011;46162;57.568;25.814;2023-07-13T03:34:38;12.35;;;1.85;;
59649;SDS011;46162;57.568;25.814;2023-07-13T03:37:07;8.98;;;1.40;;
59649;SDS011;46162;57.568;25.814;2023-07-13T03:39:36;8.25;;;1.67;;
59649;SDS011;46162;57.568;25.814;2023-07-13T03:42:06;6.47;;;1.60;;
59649;SDS011;46162;57.568;25.814;2023-07-13T03:44:35;10.15;;;1.80;;
59649;SDS011;46162;57.568;25.814;2023-07-13T03:47:04;11.38;;;1.88;;
59649;SDS011;46162;57.568;25.814;2023-07-13T03:49:37;9.45;;;1.65;;
59649;SDS011;46162;57.568;25.814;2023-07-13T03:52:06;12.93;;;1.80;;
59649;SDS011;46162;57.568;25.814;2023-07-13T03:54:35;7.88;;;1.25;;
59649;SDS011;46162;57.568;25.814;2023-07-13T03:57:04;9.20;;;1.27;;
59649;SDS011;46162;57.568;25.814;2023-07-13T03:59:35;9.25;;;1.38;;
59649;SDS011;46162;57.568;25.814;2023-07-13T04:02:04;6.03;;;1.20;;
59649;SDS011;46162;57.568;25.814;2023-07-13T04:04:33;5.90;;;1.23;;
59649;SDS011;46162;57.568;25.814;2023-07-13T04:07:04;9.57;;;1.23;;
59649;SDS011;46162;57.568;25.814;2023-07-13T04:09:34;6.45;;;1.00;;
59649;SDS011;46162;57.568;25.814;2023-07-13T04:12:03;8.63;;;1.35;;
59649;SDS011;46162;57.568;25.814;2023-07-13T04:14:33;9.15;;;1.50;;
59649;SDS011;46162;57.568;25.814;2023-07-13T04:17:02;5.55;;;1.00;;
59649;SDS011;46162;57.568;25.814;2023-07-13T04:19:31;5.10;;;1.27;;
59649;SDS011;46162;57.568;25.814;2023-07-13T04:21:59;10.70;;;1.70;;
59649;SDS011;46162;57.568;25.814;2023-07-13T04:24:29;4.88;;;1.35;;
59649;SDS011;46162;57.568;25.814;2023-07-13T04:26:58;9.00;;;1.55;;
59649;SDS011;46162;57.568;25.814;2023-07-13T04:29:28;8.40;;;1.63;;
59649;SDS011;46162;57.568;25.814;2023-07-13T04:31:57;7.43;;;1.38;;
59649;SDS011;46162;57.568;25.814;2023-07-13T04:34:25;8.13;;;1.50;;
59649;SDS011;46162;57.568;25.814;2023-07-13T04:36:54;8.75;;;1.30;;
59649;SDS011;46162;57.568;25.814;2023-07-13T04:39:23;5.78;;;1.00;;
59649;SDS011;46162;57.568;25.814;2023-07-13T04:41:53;4.65;;;1.67;;
59649;SDS011;46162;57.568;25.814;2023-07-13T04:44:22;10.05;;;1.63;;
59649;SDS011;46162;57.568;25.814;2023-07-13T04:46:51;6.70;;;1.23;;
59649;SDS011;46162;57.568;25.814;2023-07-13T04:49:20;6.88;;;1.52;;
59649;SDS011;46162;57.568;25.814;2023-07-13T04:51:49;9.70;;;1.70;;
59649;SDS011;46162;57.568;25.814;2023-07-13T04:54:17;6.00;;;1.35;;
59649;SDS011;46162;57.568;25.814;2023-07-13T04:56:46;13.13;;;1.50;;
59649;SDS011;46162;57.568;25.814;2023-07-13T04:59:16;10.82;;;2.03;;
59649;SDS011;46162;57.568;25.814;2023-07-13T05:01:44;8.55;;;1.55;;
59649;SDS011;46162;57.568;25.814;2023-07-13T05:04:13;8.07;;;1.83;;
59649;SDS011;46162;57.568;25.814;2023-07-13T05:06:42;11.25;;;1.50;;
59649;SDS011;46162;57.568;25.814;2023-07-13T05:09:11;8.13;;;1.65;;
59649;SDS011;46162;57.568;25.814;2023-07-13T05:11:40;8.38;;;1.50;;
59649;SDS011;46162;57.568;25.814;2023-07-13T05:14:09;8.00;;;1.65;;
59649;SDS011;46162;57.568;25.814;2023-07-13T05:16:39;9.38;;;2.00;;
59649;SDS011;46162;57.568;25.814;2023-07-13T05:19:08;10.18;;;1.35;;
59649;SDS011;46162;57.568;25.814;2023-07-13T05:21:37;5.90;;;1.40;;
59649;SDS011;46162;57.568;25.814;2023-07-13T05:24:05;7.70;;;1.27;;
59649;SDS011;46162;57.568;25.814;2023-07-13T05:26:50;9.52;;;1.42;;
59649;SDS011;46162;57.568;25.814;2023-07-13T05:29:20;5.53;;;1.63;;
59649;SDS011;46162;57.568;25.814;2023-07-13T05:31:50;16.55;;;1.98;;
59649;SDS011;46162;57.568;25.814;2023-07-13T05:34:19;17.63;;;2.42;;
59649;SDS011;46162;57.568;25.814;2023-07-13T05:36:47;9.25;;;1.77;;
59649;SDS011;46162;57.568;25.814;2023-07-13T05:39:17;9.02;;;1.40;;
59649;SDS011;46162;57.568;25.814;2023-07-13T05:41:45;20.15;;;2.03;;
59649;SDS011;46162;57.568;25.814;2023-07-13T05:44:14;16.52;;;1.85;;
59649;SDS011;46162;57.568;25.814;2023-07-13T05:46:43;28.08;;;2.95;;
59649;SDS011;46162;57.568;25.814;2023-07-13T05:49:13;18.15;;;1.90;;
59649;SDS011;46162;57.568;25.814;2023-07-13T05:51:41;14.57;;;1.70;;
59649;SDS011;46162;57.568;25.814;2023-07-13T05:54:10;11.05;;;1.60;;
59649;SDS011;46162;57.568;25.814;2023-07-13T05:56:39;14.25;;;2.13;;
59649;SDS011;46162;57.568;25.814;2023-07-13T05:59:07;12.63;;;1.85;;
59649;SDS011;46162;57.568;25.814;2023-07-13T06:01:36;12.88;;;1.73;;
59649;SDS011;46162;57.568;25.814;2023-07-13T06:04:05;14.60;;;2.00;;
59649;SDS011;46162;57.568;25.814;2023-07-13T06:06:35;9.18;;;1.60;;
59649;SDS011;46162;57.568;25.814;2023-07-13T06:09:04;11.75;;;1.67;;
59649;SDS011;46162;57.568;25.814;2023-07-13T06:11:32;11.13;;;1.83;;
59649;SDS011;46162;57.568;25.814;2023-07-13T06:14:01;15.10;;;2.40;;
59649;SDS011;46162;57.568;25.814;2023-07-13T06:16:30;13.60;;;1.50;;
59649;SDS011;46162;57.568;25.814;2023-07-13T06:18:59;14.35;;;1.92;;
59649;SDS011;46162;57.568;25.814;2023-07-13T06:21:28;15.48;;;1.92;;
59649;SDS011;46162;57.568;25.814;2023-07-13T06:23:58;11.02;;;1.25;;
59649;SDS011;46162;57.568;25.814;2023-07-13T06:26:26;8.63;;;1.00;;
59649;SDS011;46162;57.568;25.814;2023-07-13T06:28:56;7.43;;;1.52;;
59649;SDS011;46162;57.568;25.814;2023-07-13T06:31:25;7.25;;;1.27;;
59649;SDS011;46162;57.568;25.814;2023-07-13T06:33:53;4.43;;;1.10;;
59649;SDS011;46162;57.568;25.814;2023-07-13T06:36:22;6.68;;;1.30;;
59649;SDS011;46162;57.568;25.814;2023-07-13T06:38:51;7.95;;;1.17;;
59649;SDS011;46162;57.568;25.814;2023-07-13T06:41:21;10.98;;;1.10;;
59649;SDS011;46162;57.568;25.814;2023-07-13T06:43:52;9.60;;;1.15;;
59649;SDS011;46162;57.568;25.814;2023-07-13T06:46:21;19.63;;;1.48;;
59649;SDS011;46162;57.568;25.814;2023-07-13T06:48:51;10.70;;;1.30;;
59649;SDS011;46162;57.568;25.814;2023-07-13T06:51:19;6.68;;;1.48;;
59649;SDS011;46162;57.568;25.814;2023-07-13T06:53:48;7.57;;;1.45;;
59649;SDS011;46162;57.568;25.814;2023-07-13T06:56:16;8.20;;;1.30;;
59649;SDS011;46162;57.568;25.814;2023-07-13T06:58:47;11.00;;;1.55;;
59649;SDS011;46162;57.568;25.814;2023-07-13T07:01:15;5.45;;;1.30;;
59649;SDS011;46162;57.568;25.814;2023-07-13T07:03:44;5.72;;;0.90;;
59649;SDS011;46162;57.568;25.814;2023-07-13T07:06:15;8.05;;;1.30;;
59649;SDS011;46162;57.568;25.814;2023-07-13T07:08:45;10.65;;;1.10;;
59649;SDS011;46162;57.568;25.814;2023-07-13T07:11:16;8.77;;;1.35;;
59649;SDS011;46162;57.568;25.814;2023-07-13T07:13:47;10.02;;;1.45;;
59649;SDS011;46162;57.568;25.814;2023-07-13T07:16:16;9.15;;;1.30;;
59649;SDS011;46162;57.568;25.814;2023-07-13T07:18:45;11.98;;;1.30;;
59649;SDS011;46162;57.568;25.814;2023-07-13T07:21:14;13.50;;;1.30;;
59649;SDS011;46162;57.568;25.814;2023-07-13T07:23:43;8.90;;;1.30;;
59649;SDS011;46162;57.568;25.814;2023-07-13T07:26:12;11.25;;;1.23;;
59649;SDS011;46162;57.568;25.814;2023-07-13T07:28:40;14.85;;;1.40;;
59649;SDS011;46162;57.568;25.814;2023-07-13T07:31:16;10.45;;;1.33;;
59649;SDS011;46162;57.568;25.814;2023-07-13T07:33:47;7.03;;;1.23;;
59649;SDS011;46162;57.568;25.814;2023-07-13T07:36:16;8.80;;;1.17;;
59649;SDS011;46162;57.568;25.814;2023-07-13T07:38:48;9.23;;;1.60;;
59649;SDS011;46162;57.568;25.814;2023-07-13T07:41:17;11.70;;;1.98;;
59649;SDS011;46162;57.568;25.814;2023-07-13T07:43:48;6.90;;;0.93;;
59649;SDS011;46162;57.568;25.814;2023-07-13T07:46:18;10.98;;;1.85;;
59649;SDS011;46162;57.568;25.814;2023-07-13T07:48:47;19.48;;;1.75;;
59649;SDS011;46162;57.568;25.814;2023-07-13T07:51:15;11.43;;;1.33;;
59649;SDS011;46162;57.568;25.814;2023-07-13T07:53:44;14.10;;;1.17;;
59649;SDS011;46162;57.568;25.814;2023-07-13T07:56:12;11.57;;;1.52;;
59649;SDS011;46162;57.568;25.814;2023-07-13T07:58:45;13.10;;;1.83;;
59649;SDS011;46162;57.568;25.814;2023-07-13T08:01:18;12.68;;;1.88;;
59649;SDS011;46162;57.568;25.814;2023-07-13T08:03:50;6.78;;;1.50;;
59649;SDS011;46162;57.568;25.814;2023-07-13T08:06:21;11.70;;;1.50;;
59649;SDS011;46162;57.568;25.814;2023-07-13T08:08:53;11.88;;;1.77;;
59649;SDS011;46162;57.568;25.814;2023-07-13T08:11:22;18.70;;;1.83;;
59649;SDS011;46162;57.568;25.814;2023-07-13T08:13:53;12.77;;;1.67;;
59649;SDS011;46162;57.568;25.814;2023-07-13T08:16:23;7.95;;;1.98;;
59649;SDS011;46162;57.568;25.814;2023-07-13T08:18:52;8.88;;;1.75;;
59649;SDS011;46162;57.568;25.814;2023-07-13T08:21:21;8.93;;;1.67;;
59649;SDS011;46162;57.568;25.814;2023-07-13T08:23:50;10.38;;;1.75;;
59649;SDS011;46162;57.568;25.814;2023-07-13T08:26:18;11.68;;;2.17;;
59649;SDS011;46162;57.568;25.814;2023-07-13T08:28:47;11.75;;;2.20;;
59649;SDS011;46162;57.568;25.814;2023-07-13T08:31:15;7.20;;;1.88;;
59649;SDS011;46162;57.568;25.814;2023-07-13T08:33:46;12.75;;;2.30;;
59649;SDS011;46162;57.568;25.814;2023-07-13T08:36:14;12.88;;;2.08;;
59649;SDS011;46162;57.568;25.814;2023-07-13T08:38:43;13.57;;;2.13;;
59649;SDS011;46162;57.568;25.814;2023-07-13T08:41:12;6.03;;;2.00;;
59649;SDS011;46162;57.568;25.814;2023-07-13T08:43:43;17.42;;;2.38;;
59649;SDS011;46162;57.568;25.814;2023-07-13T08:46:16;6.53;;;2.35;;
59649;SDS011;46162;57.568;25.814;2023-07-13T08:48:57;11.18;;;3.05;;
59649;SDS011;46162;57.568;25.814;2023-07-13T08:51:31;12.45;;;2.95;;
59649;SDS011;46162;57.568;25.814;2023-07-13T08:54:09;9.65;;;2.70;;
59649;SDS011;46162;57.568;25.814;2023-07-13T08:56:45;13.45;;;3.08;;
59649;SDS011;46162;57.568;25.814;2023-07-13T08:59:15;9.07;;;2.85;;
59649;SDS011;46162;57.568;25.814;2023-07-13T09:01:48;15.52;;;3.55;;
59649;SDS011;46162;57.568;25.814;2023-07-13T09:04:29;10.40;;;3.10;;
59649;SDS011;46162;57.568;25.814;2023-07-13T09:07:04;7.20;;;3.25;;
59649;SDS011;46162;57.568;25.814;2023-07-13T09:09:46;25.60;;;4.72;;
59649;SDS011;46162;57.568;25.814;2023-07-13T09:14:55;10.73;;;3.83;;
59649;SDS011;46162;57.568;25.814;2023-07-13T09:17:27;11.95;;;3.90;;
59649;SDS011;46162;57.568;25.814;2023-07-13T09:20:02;11.40;;;3.60;;
59649;SDS011;46162;57.568;25.814;2023-07-13T09:22:38;16.30;;;4.05;;
59649;SDS011;46162;57.568;25.814;2023-07-13T09:25:12;9.50;;;3.85;;
59649;SDS011;46162;57.568;25.814;2023-07-13T09:27:52;7.53;;;3.70;;
59649;SDS011;46162;57.568;25.814;2023-07-13T09:30:24;18.25;;;3.97;;
59649;SDS011;46162;57.568;25.814;2023-07-13T09:32:59;14.23;;;3.70;;
59649;SDS011;46162;57.568;25.814;2023-07-13T09:35:29;11.18;;;3.53;;
59649;SDS011;46162;57.568;25.814;2023-07-13T09:38:03;11.40;;;3.55;;
59649;SDS011;46162;57.568;25.814;2023-07-13T09:40:36;9.50;;;3.28;;
59649;SDS011;46162;57.568;25.814;2023-07-13T09:43:13;7.03;;;3.30;;
59649;SDS011;46162;57.568;25.814;2023-07-13T09:45:45;10.43;;;3.25;;
59649;SDS011;46162;57.568;25.814;2023-07-13T09:48:15;8.40;;;3.30;;
59649;SDS011;46162;57.568;25.814;2023-07-13T09:50:47;9.77;;;3.35;;
59649;SDS011;46162;57.568;25.814;2023-07-13T09:53:18;9.20;;;3.15;;
59649;SDS011;46162;57.568;25.814;2023-07-13T09:55:47;8.52;;;3.33;;
59649;SDS011;46162;57.568;25.814;2023-07-13T09:58:20;8.02;;;2.95;;
59649;SDS011;46162;57.568;25.814;2023-07-13T10:00:54;6.75;;;2.97;;
59649;SDS011;46162;57.568;25.814;2023-07-13T10:03:26;7.00;;;3.03;;
59649;SDS011;46162;57.568;25.814;2023-07-13T10:06:01;6.85;;;3.33;;
59649;SDS011;46162;57.568;25.814;2023-07-13T10:08:37;10.90;;;3.10;;
59649;SDS011;46162;57.568;25.814;2023-07-13T10:11:09;7.07;;;2.83;;
59649;SDS011;46162;57.568;25.814;2023-07-13T10:13:41;7.30;;;3.05;;
59649;SDS011;46162;57.568;25.814;2023-07-13T10:16:12;6.72;;;2.85;;
59649;SDS011;46162;57.568;25.814;2023-07-13T10:18:42;7.20;;;2.60;;
59649;SDS011;46162;57.568;25.814;2023-07-13T10:21:16;5.72;;;3.17;;
59649;SDS011;46162;57.568;25.814;2023-07-13T10:24:03;5.65;;;2.88;;
59649;SDS011;46162;57.568;25.814;2023-07-13T10:26:41;6.90;;;3.10;;
59649;SDS011;46162;57.568;25.814;2023-07-13T10:29:14;4.47;;;2.45;;
59649;SDS011;46162;57.568;25.814;2023-07-13T10:31:45;4.95;;;2.72;;
59649;SDS011;46162;57.568;25.814;2023-07-13T10:34:14;5.72;;;2.38;;
59649;SDS011;46162;57.568;25.814;2023-07-13T10:36:46;2.65;;;1.50;;
59649;SDS011;46162;57.568;25.814;2023-07-13T10:39:17;5.72;;;1.98;;
59649;SDS011;46162;57.568;25.814;2023-07-13T10:41:50;5.10;;;2.05;;
59649;SDS011;46162;57.568;25.814;2023-07-13T10:44:23;4.50;;;1.90;;
59649;SDS011;46162;57.568;25.814;2023-07-13T10:46:57;6.32;;;2.20;;
59649;SDS011;46162;57.568;25.814;2023-07-13T10:49:28;3.70;;;1.50;;
59649;SDS011;46162;57.568;25.814;2023-07-13T10:52:01;5.53;;;1.90;;
59649;SDS011;46162;57.568;25.814;2023-07-13T10:54:31;8.35;;;2.00;;
59649;SDS011;46162;57.568;25.814;2023-07-13T10:57:10;10.75;;;3.03;;
59649;SDS011;46162;57.568;25.814;2023-07-13T10:59:46;3.70;;;2.00;;
59649;SDS011;46162;57.568;25.814;2023-07-13T11:02:21;6.15;;;1.95;;
59649;SDS011;46162;57.568;25.814;2023-07-13T11:04:55;9.10;;;2.05;;
59649;SDS011;46162;57.568;25.814;2023-07-13T11:07:27;5.00;;;1.95;;
59649;SDS011;46162;57.568;25.814;2023-07-13T11:09:57;7.60;;;1.73;;
59649;SDS011;46162;57.568;25.814;2023-07-13T11:12:29;3.92;;;1.83;;
59649;SDS011;46162;57.568;25.814;2023-07-13T11:18:02;4.65;;;1.23;;
59649;SDS011;46162;57.568;25.814;2023-07-13T11:20:33;3.13;;;0.90;;
59649;SDS011;46162;57.568;25.814;2023-07-13T11:23:16;3.20;;;0.65;;
59649;SDS011;46162;57.568;25.814;2023-07-13T11:26:03;4.55;;;0.90;;
59649;SDS011;46162;57.568;25.814;2023-07-13T11:28:32;4.10;;;0.73;;
59649;SDS011;46162;57.568;25.814;2023-07-13T11:31:03;2.47;;;0.57;;
59649;SDS011;46162;57.568;25.814;2023-07-13T11:36:20;2.58;;;0.43;;
59649;SDS011;46162;57.568;25.814;2023-07-13T11:38:57;2.30;;;0.77;;
59649;SDS011;46162;57.568;25.814;2023-07-13T11:41:31;2.97;;;1.10;;
59649;SDS011;46162;57.568;25.814;2023-07-13T11:44:07;9.15;;;0.90;;
59649;SDS011;46162;57.568;25.814;2023-07-13T11:46:44;3.13;;;0.82;;
59649;SDS011;46162;57.568;25.814;2023-07-13T11:49:17;6.38;;;1.23;;
59649;SDS011;46162;57.568;25.814;2023-07-13T11:51:50;3.65;;;1.23;;
59649;SDS011;46162;57.568;25.814;2023-07-13T11:54:25;4.45;;;1.33;;
59649;SDS011;46162;57.568;25.814;2023-07-13T11:56:57;5.25;;;1.30;;
59649;SDS011;46162;57.568;25.814;2023-07-13T11:59:30;4.50;;;1.58;;
59649;SDS011;46162;57.568;25.814;2023-07-13T12:02:00;7.35;;;1.55;;
59649;SDS011;46162;57.568;25.814;2023-07-13T12:04:31;3.00;;;1.08;;
59649;SDS011;46162;57.568;25.814;2023-07-13T12:07:04;5.35;;;1.30;;
59649;SDS011;46162;57.568;25.814;2023-07-13T12:09:37;5.68;;;1.27;;
59649;SDS011;46162;57.568;25.814;2023-07-13T12:12:10;4.18;;;1.50;;
59649;SDS011;46162;57.568;25.814;2023-07-13T12:14:40;4.50;;;1.15;;
59649;SDS011;46162;57.568;25.814;2023-07-13T12:17:11;6.30;;;1.48;;
59649;SDS011;46162;57.568;25.814;2023-07-13T12:19:44;3.30;;;1.00;;
59649;SDS011;46162;57.568;25.814;2023-07-13T12:22:14;5.03;;;1.00;;
59649;SDS011;46162;57.568;25.814;2023-07-13T12:24:45;3.72;;;0.93;;
59649;SDS011;46162;57.568;25.814;2023-07-13T12:27:18;13.65;;;1.02;;
59649;SDS011;46162;57.568;25.814;2023-07-13T12:29:50;6.93;;;0.70;;
59649;SDS011;46162;57.568;25.814;2023-07-13T12:32:20;7.70;;;0.68;;
59649;SDS011;46162;57.568;25.814;2023-07-13T12:34:51;2.85;;;0.52;;
59649;SDS011;46162;57.568;25.814;2023-07-13T12:37:21;2.08;;;0.35;;
59649;SDS011;46162;57.568;25.814;2023-07-13T12:39:52;3.80;;;0.50;;
59649;SDS011;46162;57.568;25.814;2023-07-13T12:44:53;2.67;;;0.50;;
59649;SDS011;46162;57.568;25.814;2023-07-13T12:47:24;2.28;;;0.40;;
59649;SDS011;46162;57.568;25.814;2023-07-13T12:49:54;3.60;;;0.40;;
59649;SDS011;46162;57.568;25.814;2023-07-13T12:52:29;5.75;;;0.30;;
59649;SDS011;46162;57.568;25.814;2023-07-13T12:55:06;5.28;;;0.50;;
59649;SDS011;46162;57.568;25.814;2023-07-13T12:57:41;4.10;;;0.40;;
59649;SDS011;46162;57.568;25.814;2023-07-13T13:00:20;2.28;;;0.32;;
59649;SDS011;46162;57.568;25.814;2023-07-13T13:02:53;10.13;;;0.50;;
59649;SDS011;46162;57.568;25.814;2023-07-13T13:05:44;2.78;;;0.30;;
59649;SDS011;46162;57.568;25.814;2023-07-13T13:08:13;2.85;;;0.20;;
59649;SDS011;46162;57.568;25.814;2023-07-13T13:10:43;3.22;;;0.30;;
59649;SDS011;46162;57.568;25.814;2023-07-13T13:13:12;2.97;;;0.20;;
59649;SDS011;46162;57.568;25.814;2023-07-13T13:15:41;4.97;;;0.20;;
59649;SDS011;46162;57.568;25.814;2023-07-13T13:18:14;4.63;;;0.17;;
59649;SDS011;46162;57.568;25.814;2023-07-13T13:20:45;5.40;;;0.10;;
59649;SDS011;46162;57.568;25.814;2023-07-13T13:23:15;3.10;;;0.22;;
59649;SDS011;46162;57.568;25.814;2023-07-13T13:25:48;3.78;;;0.30;;
59649;SDS011;46162;57.568;25.814;2023-07-13T13:28:19;2.58;;;0.10;;
59649;SDS011;46162;57.568;25.814;2023-07-13T13:33:19;2.55;;;0.10;;
59649;SDS011;46162;57.568;25.814;2023-07-13T13:35:50;4.57;;;0.10;;
59649;SDS011;46162;57.568;25.814;2023-07-13T13:38:19;2.75;;;0.10;;
59649;SDS011;46162;57.568;25.814;2023-07-13T13:40:54;3.42;;;0.00;;
59649;SDS011;46162;57.568;25.814;2023-07-13T13:43:23;2.63;;;0.20;;
59649;SDS011;46162;57.568;25.814;2023-07-13T13:45:54;2.05;;;0.10;;
59649;SDS011;46162;57.568;25.814;2023-07-13T13:48:26;6.68;;;0.10;;
59649;SDS011;46162;57.568;25.814;2023-07-13T13:50:59;2.33;;;0.10;;
59649;SDS011;46162;57.568;25.814;2023-07-13T13:56:24;7.72;;;0.20;;
59649;SDS011;46162;57.568;25.814;2023-07-13T13:58:52;2.45;;;0.17;;
59649;SDS011;46162;57.568;25.814;2023-07-13T14:01:21;4.40;;;0.10;;
59649;SDS011;46162;57.568;25.814;2023-07-13T14:03:51;2.00;;;0.10;;
59649;SDS011;46162;57.568;25.814;2023-07-13T14:06:20;2.33;;;0.10;;
59649;SDS011;46162;57.568;25.814;2023-07-13T14:08:48;2.22;;;0.10;;
59649;SDS011;46162;57.568;25.814;2023-07-13T14:11:18;3.75;;;0.00;;
59649;SDS011;46162;57.568;25.814;2023-07-13T14:16:20;1.45;;;0.00;;
59649;SDS011;46162;57.568;25.814;2023-07-13T14:18:50;1.98;;;0.10;;
59649;SDS011;46162;57.568;25.814;2023-07-13T14:21:21;3.78;;;0.10;;
59649;SDS011;46162;57.568;25.814;2023-07-13T14:23:50;1.35;;;0.03;;
59649;SDS011;46162;57.568;25.814;2023-07-13T14:26:19;3.60;;;0.10;;
59649;SDS011;46162;57.568;25.814;2023-07-13T14:34:19;5.03;;;0.00;;
59649;SDS011;46162;57.568;25.814;2023-07-13T14:36:49;2.40;;;0.10;;
59649;SDS011;46162;57.568;25.814;2023-07-13T14:39:18;1.95;;;0.05;;
59649;SDS011;46162;57.568;25.814;2023-07-13T14:44:21;1.95;;;0.10;;
59649;SDS011;46162;57.568;25.814;2023-07-13T14:46:52;1.45;;;0.10;;
59649;SDS011;46162;57.568;25.814;2023-07-13T14:49:23;1.70;;;0.10;;
59649;SDS011;46162;57.568;25.814;2023-07-13T14:51:54;1.88;;;0.10;;
59649;SDS011;46162;57.568;25.814;2023-07-13T14:54:25;3.33;;;0.30;;
59649;SDS011;46162;57.568;25.814;2023-07-13T14:56:53;1.65;;;0.00;;
59649;SDS011;46162;57.568;25.814;2023-07-13T14:59:23;2.65;;;0.00;;
59649;SDS011;46162;57.568;25.814;2023-07-13T15:01:52;3.03;;;0.08;;
59649;SDS011;46162;57.568;25.814;2023-07-13T15:04:21;3.58;;;0.10;;
59649;SDS011;46162;57.568;25.814;2023-07-13T15:06:54;3.38;;;0.10;;
59649;SDS011;46162;57.568;25.814;2023-07-13T15:09:24;3.63;;;0.10;;
59649;SDS011;46162;57.568;25.814;2023-07-13T15:11:53;3.65;;;0.22;;
59649;SDS011;46162;57.568;25.814;2023-07-13T15:14:24;5.15;;;0.10;;
59649;SDS011;46162;57.568;25.814;2023-07-13T15:16:57;1.35;;;0.05;;
59649;SDS011;46162;57.568;25.814;2023-07-13T15:19:26;3.50;;;0.00;;
59649;SDS011;46162;57.568;25.814;2023-07-13T15:21:55;2.15;;;0.10;;